Aviation Digital Data Service (ADDS)

Output produced by METARs form (0723 UTC 29 March 2015)
found at http://aviationweather.gov/adds/metars/
 
KAEX 290715Z 11005KT 9SM FEW008 SCT013 14/13 A3015 RMK AO2 T01390128